Surface observations / UK / EGMC

Quebec | Canada | USA | France | UK | Europe | Elsewhere

Display: Info & Location for EGMC | Help decoding METAR

EGMC SOUTHEND-ON-SEA -- UK
Raw surface observations for station EGMC
EGMC 162120Z 06008KT 2800 HZ BKN008 17/15 Q1014=
EGMC 162050Z 06009KT 2800 HZ OVC008 18/15 Q1014=
EGMC 162020Z 06007KT 2800 HZ OVC007 18/16 Q1014=
EGMC 161950Z 07007KT 2500 HZ OVC007 18/16 Q1014=
EGMC 161920Z 08007KT 2500 HZ OVC006 18/16 Q1014=
EGMC 161850Z 09006KT 2500 HZ OVC006 18/16 Q1014=
EGMC 161820Z 09006KT 2500 HZ BKN006 18/16 Q1014=
EGMC 161750Z 09008KT 3000 HZ SCT006 17/16 Q1014=
EGMC 161720Z 09008KT 3400 HZ FEW007 18/16 Q1014=
EGMC 161650Z 08010KT 4000 HZ FEW025 18/16 Q1014=
EGMC 161620Z 08010KT 6000 FEW020 20/16 Q1014=
EGMC 161550Z 08009KT 7000 FEW020 20/16 Q1014=
EGMC 161520Z 10009KT 7000 FEW024 21/15 Q1014=
EGMC 161450Z 09008KT 060V120 7000 FEW023 22/15 Q1014=
EGMC 161420Z 08008KT 7000 FEW023 22/15 Q1014=
EGMC 161350Z 09008KT 060V120 7000 FEW023 22/15 Q1014=
EGMC 161320Z 10008KT 7000 FEW023 22/15 Q1015=
EGMC 161250Z 09009KT 7000 FEW022 21/16 Q1015=
EGMC 161220Z 09009KT 7000 SCT022 21/15 Q1015=
EGMC 161150Z 09009KT 7000 SCT022 22/16 Q1015=
EGMC 161120Z 09009KT 7000 SCT015 21/16 Q1015=
EGMC 161050Z 09009KT 6000 SCT015 21/16 Q1015=
EGMC 161020Z 07008KT 5000 HZ SCT014 20/16 Q1015=
EGMC 160950Z 07007KT 030V100 5000 HZ SCT012 20/16 Q1015=
EGMC 160920Z 07009KT 010V070 4500 BR FEW009 BKN011 19/17 Q1015=
EGMC 160850Z 04004KT 010V070 3000 BR BKN005 18/17 Q1015=
EGMC 160820Z 05006KT 1000 R06/1200 R24/1200 BR BKN030 17/17 Q1016=
EGMC 160750Z 07007KT 0350 R06/0450 R24/0450 FG OVC001 17/16 Q1015=
EGMC 160720Z 06005KT 020V080 0300 R06/0450 R24/0450 FG OVC001 17/16 Q1015=
EGMC 160650Z 04004KT 010V070 0100 R06/0175N R24/0225N FG OVC001 17/16 Q1015=
EGMC 160620Z 05006KT 0100 R24/0200N R06/0175N FG OVC001 16/15 Q1015=
EGMC 160550Z 01004KT 0100 R24/0200N R06/0175N FG OVC001 16/15 Q1015=
EGMC 160520Z 01003KT 0100 R24/0250N R06/0250N FG OVC001 15/14 Q1015=
EGMC 160450Z 36004KT 0300 R24/0600D R06/0550D FG OVC001 15/14 Q1015=
EGMC 160420Z 34002KT 1400 BR BKN002 15/14 Q1015=
EGMC 160350Z 33003KT 1800 BR BKN002 15/14 Q1015=
EGMC 160250Z 35003KT 1200 BR BKN001 14/13 Q1015=
EGMC 160150Z 35003KT 2700 BR BKN003 14/13 Q1015=
EGMC 160050Z 35002KT 2800 R24/1800D R06/1700U BR FEW001 14/13 Q1015=
EGMC 160020Z 35004KT 2700 R24/1700U R06/1700U BR BCFG NSC 14/13 Q1015=
EGMC 152250Z 35003KT 3500 BR BCFG NSC 12/11 Q1016=
EGMC 152220Z VRB03KT 4000 BR BCFG NSC 11/10 Q1016=
EGMC 152150Z VRB03KT 4500 BR BCFG NSC 11/10 Q1016=
EGMC 152120Z 35002KT 6000 BCFG NSC 12/11 Q1016=